sensor_id;sensor_type;location;lat;lon;timestamp;pressure;altitude;pressure_sealevel;temperature;humidity
36798;BME280;22748;8.426;99.512;2023-05-25T00:00:22;100786.88;;;30.08;65.66
36798;BME280;22748;8.426;99.512;2023-05-25T00:03:05;100794.31;;;30.13;65.81
36798;BME280;22748;8.426;99.512;2023-05-25T00:05:35;100794.94;;;30.08;65.67
36798;BME280;22748;8.426;99.512;2023-05-25T00:08:04;100799.72;;;30.06;65.76
36798;BME280;22748;8.426;99.512;2023-05-25T00:10:39;100804.94;;;30.01;66.11
36798;BME280;22748;8.426;99.512;2023-05-25T00:13:09;100807.81;;;30.00;66.09
36798;BME280;22748;8.426;99.512;2023-05-25T00:15:39;100811.94;;;30.02;66.25
36798;BME280;22748;8.426;99.512;2023-05-25T00:18:11;100822.94;;;30.07;66.48
36798;BME280;22748;8.426;99.512;2023-05-25T00:20:40;100820.44;;;30.06;66.73
36798;BME280;22748;8.426;99.512;2023-05-25T00:23:10;100826.03;;;30.04;66.34
36798;BME280;22748;8.426;99.512;2023-05-25T00:25:40;100834.28;;;30.09;66.47
36798;BME280;22748;8.426;99.512;2023-05-25T00:28:10;100841.53;;;30.09;66.43
36798;BME280;22748;8.426;99.512;2023-05-25T00:30:44;100842.16;;;30.11;66.67
36798;BME280;22748;8.426;99.512;2023-05-25T00:33:15;100840.53;;;30.03;67.11
36798;BME280;22748;8.426;99.512;2023-05-25T00:35:47;100838.66;;;30.10;66.53
36798;BME280;22748;8.426;99.512;2023-05-25T00:38:16;100844.25;;;30.09;66.55
36798;BME280;22748;8.426;99.512;2023-05-25T00:40:52;100845.09;;;29.96;67.57
36798;BME280;22748;8.426;99.512;2023-05-25T00:43:23;100854.41;;;30.07;67.17
36798;BME280;22748;8.426;99.512;2023-05-25T00:46:07;100847.34;;;30.12;66.96
36798;BME280;22748;8.426;99.512;2023-05-25T00:48:39;100853.34;;;30.14;67.22
36798;BME280;22748;8.426;99.512;2023-05-25T00:51:10;100852.91;;;30.18;67.40
36798;BME280;22748;8.426;99.512;2023-05-25T00:53:41;100850.88;;;30.06;68.23
36798;BME280;22748;8.426;99.512;2023-05-25T00:56:17;100859.34;;;30.17;67.98
36798;BME280;22748;8.426;99.512;2023-05-25T00:58:48;100866.59;;;30.23;67.84
36798;BME280;22748;8.426;99.512;2023-05-25T01:01:20;100871.13;;;30.29;67.74
36798;BME280;22748;8.426;99.512;2023-05-25T01:04:05;100869.28;;;30.36;67.68
36798;BME280;22748;8.426;99.512;2023-05-25T01:06:35;100872.34;;;30.40;68.25
36798;BME280;22748;8.426;99.512;2023-05-25T01:09:05;100872.94;;;30.48;67.63
36798;BME280;22748;8.426;99.512;2023-05-25T01:11:37;100879.13;;;30.55;67.58
36798;BME280;22748;8.426;99.512;2023-05-25T01:14:07;100877.06;;;30.58;67.77
36798;BME280;22748;8.426;99.512;2023-05-25T01:16:37;100867.13;;;30.51;68.12
36798;BME280;22748;8.426;99.512;2023-05-25T01:19:12;100868.34;;;30.55;68.25
36798;BME280;22748;8.426;99.512;2023-05-25T01:21:49;100882.00;;;30.61;67.62
36798;BME280;22748;8.426;99.512;2023-05-25T01:24:29;100887.16;;;30.69;67.65
36798;BME280;22748;8.426;99.512;2023-05-25T01:27:00;100881.31;;;30.72;67.93
36798;BME280;22748;8.426;99.512;2023-05-25T01:29:35;100886.31;;;30.75;67.87
36798;BME280;22748;8.426;99.512;2023-05-25T01:32:16;100879.41;;;30.79;67.80
36798;BME280;22748;8.426;99.512;2023-05-25T01:34:45;100880.25;;;30.86;67.67
36798;BME280;22748;8.426;99.512;2023-05-25T01:37:24;100879.19;;;30.87;67.83
36798;BME280;22748;8.426;99.512;2023-05-25T01:39:57;100881.28;;;30.79;68.37
36798;BME280;22748;8.426;99.512;2023-05-25T01:42:26;100882.72;;;30.88;68.04
36798;BME280;22748;8.426;99.512;2023-05-25T01:44:57;100885.41;;;30.94;67.57
36798;BME280;22748;8.426;99.512;2023-05-25T01:47:31;100878.28;;;31.00;67.68
36798;BME280;22748;8.426;99.512;2023-05-25T01:50:03;100878.69;;;31.04;67.59
36798;BME280;22748;8.426;99.512;2023-05-25T01:52:37;100880.72;;;31.08;67.11
36798;BME280;22748;8.426;99.512;2023-05-25T01:55:10;100888.78;;;31.15;67.26
36798;BME280;22748;8.426;99.512;2023-05-25T01:57:41;100874.28;;;31.09;67.66
36798;BME280;22748;8.426;99.512;2023-05-25T02:00:12;100887.72;;;31.16;67.24
36798;BME280;22748;8.426;99.512;2023-05-25T02:02:42;100894.72;;;31.24;67.33
36798;BME280;22748;8.426;99.512;2023-05-25T02:05:12;100890.91;;;31.31;67.38
36798;BME280;22748;8.426;99.512;2023-05-25T02:07:44;100891.53;;;31.33;66.60
36798;BME280;22748;8.426;99.512;2023-05-25T02:10:20;100889.91;;;31.32;66.06
36798;BME280;22748;8.426;99.512;2023-05-25T02:12:50;100894.63;;;31.37;66.43
36798;BME280;22748;8.426;99.512;2023-05-25T02:15:20;100887.97;;;31.40;65.82
36798;BME280;22748;8.426;99.512;2023-05-25T02:17:50;100900.63;;;31.39;65.74
36798;BME280;22748;8.426;99.512;2023-05-25T02:20:24;100900.41;;;31.41;65.90
36798;BME280;22748;8.426;99.512;2023-05-25T02:23:01;100911.03;;;31.35;66.11
36798;BME280;22748;8.426;99.512;2023-05-25T02:25:44;100901.09;;;31.36;65.94
36798;BME280;22748;8.426;99.512;2023-05-25T02:28:14;100900.41;;;31.41;64.91
36798;BME280;22748;8.426;99.512;2023-05-25T02:30:43;100898.38;;;31.43;64.89
36798;BME280;22748;8.426;99.512;2023-05-25T02:33:14;100912.63;;;31.50;63.92
36798;BME280;22748;8.426;99.512;2023-05-25T02:35:45;100907.00;;;31.51;63.75
36798;BME280;22748;8.426;99.512;2023-05-25T02:38:15;100905.28;;;31.57;63.98
36798;BME280;22748;8.426;99.512;2023-05-25T02:40:46;100917.31;;;31.61;63.89
36798;BME280;22748;8.426;99.512;2023-05-25T02:43:22;100914.38;;;31.63;63.80
36798;BME280;22748;8.426;99.512;2023-05-25T02:45:51;100910.88;;;31.62;64.07
36798;BME280;22748;8.426;99.512;2023-05-25T02:48:20;100907.72;;;31.65;63.70
36798;BME280;22748;8.426;99.512;2023-05-25T02:50:49;100915.97;;;31.70;63.51
36798;BME280;22748;8.426;99.512;2023-05-25T02:53:30;100909.38;;;31.66;63.37
36798;BME280;22748;8.426;99.512;2023-05-25T02:56:15;100905.94;;;31.77;62.92
36798;BME280;22748;8.426;99.512;2023-05-25T02:58:49;100922.53;;;31.81;63.05
36798;BME280;22748;8.426;99.512;2023-05-25T03:01:19;100916.22;;;31.87;63.32
36798;BME280;22748;8.426;99.512;2023-05-25T03:03:48;100918.25;;;31.92;63.22
36798;BME280;22748;8.426;99.512;2023-05-25T03:06:24;100904.16;;;31.90;63.31
36798;BME280;22748;8.426;99.512;2023-05-25T03:08:56;100911.22;;;31.91;63.08
36798;BME280;22748;8.426;99.512;2023-05-25T03:11:27;100901.19;;;31.98;62.44
36798;BME280;22748;8.426;99.512;2023-05-25T03:13:57;100895.94;;;32.03;62.26
36798;BME280;22748;8.426;99.512;2023-05-25T03:16:26;100884.09;;;32.04;61.62
36798;BME280;22748;8.426;99.512;2023-05-25T03:18:56;100892.72;;;32.13;61.83
36798;BME280;22748;8.426;99.512;2023-05-25T03:21:26;100896.44;;;32.18;61.67
36798;BME280;22748;8.426;99.512;2023-05-25T03:23:56;100886.19;;;32.21;61.65
36798;BME280;22748;8.426;99.512;2023-05-25T03:26:32;100885.16;;;32.22;61.65
36798;BME280;22748;8.426;99.512;2023-05-25T03:29:02;100881.38;;;32.23;61.58
36798;BME280;22748;8.426;99.512;2023-05-25T03:31:31;100890.09;;;32.25;61.29
36798;BME280;22748;8.426;99.512;2023-05-25T03:34:04;100867.78;;;32.29;60.71
36798;BME280;22748;8.426;99.512;2023-05-25T03:36:34;100871.47;;;32.35;60.79
36798;BME280;22748;8.426;99.512;2023-05-25T03:39:14;100870.78;;;32.39;60.70
36798;BME280;22748;8.426;99.512;2023-05-25T03:41:46;100877.63;;;32.42;60.42
36798;BME280;22748;8.426;99.512;2023-05-25T03:44:16;100874.47;;;32.45;60.38
36798;BME280;22748;8.426;99.512;2023-05-25T03:46:51;100871.31;;;32.48;60.28
36798;BME280;22748;8.426;99.512;2023-05-25T03:49:35;100867.13;;;32.52;60.59
36798;BME280;22748;8.426;99.512;2023-05-25T03:52:05;100866.09;;;32.53;60.45
36798;BME280;22748;8.426;99.512;2023-05-25T03:54:37;100858.56;;;32.55;60.46
36798;BME280;22748;8.426;99.512;2023-05-25T03:57:07;100858.13;;;32.58;60.39
36798;BME280;22748;8.426;99.512;2023-05-25T03:59:36;100858.72;;;32.61;60.74
36798;BME280;22748;8.426;99.512;2023-05-25T04:02:05;100856.00;;;32.61;60.28
36798;BME280;22748;8.426;99.512;2023-05-25T04:04:40;100848.50;;;32.63;60.40
36798;BME280;22748;8.426;99.512;2023-05-25T04:07:18;100850.50;;;32.67;60.75
36798;BME280;22748;8.426;99.512;2023-05-25T04:09:50;100842.63;;;32.66;59.87
36798;BME280;22748;8.426;99.512;2023-05-25T04:12:20;100836.28;;;32.72;60.11
36798;BME280;22748;8.426;99.512;2023-05-25T04:14:55;100840.06;;;32.71;59.99
36798;BME280;22748;8.426;99.512;2023-05-25T04:17:24;100835.91;;;32.68;58.95
36798;BME280;22748;8.426;99.512;2023-05-25T04:19:54;100839.59;;;32.74;58.61
36798;BME280;22748;8.426;99.512;2023-05-25T04:22:24;100826.66;;;32.76;58.77
36798;BME280;22748;8.426;99.512;2023-05-25T04:24:55;100821.38;;;32.81;58.79
36798;BME280;22748;8.426;99.512;2023-05-25T04:27:24;100823.38;;;32.86;58.83
36798;BME280;22748;8.426;99.512;2023-05-25T04:30:07;100821.06;;;32.89;58.78
36798;BME280;22748;8.426;99.512;2023-05-25T04:32:36;100812.47;;;32.92;58.61
36798;BME280;22748;8.426;99.512;2023-05-25T04:35:06;100820.13;;;32.95;57.50
36798;BME280;22748;8.426;99.512;2023-05-25T04:37:41;100822.13;;;33.00;57.19
36798;BME280;22748;8.426;99.512;2023-05-25T04:40:27;100808.81;;;32.98;56.69
36798;BME280;22748;8.426;99.512;2023-05-25T04:43:01;100809.13;;;33.09;57.39
36798;BME280;22748;8.426;99.512;2023-05-25T04:45:36;100802.41;;;33.11;57.30
36798;BME280;22748;8.426;99.512;2023-05-25T04:48:11;100803.22;;;33.12;57.51
36798;BME280;22748;8.426;99.512;2023-05-25T04:50:54;100800.66;;;33.17;56.75
36798;BME280;22748;8.426;99.512;2023-05-25T04:53:23;100793.13;;;33.19;56.48
36798;BME280;22748;8.426;99.512;2023-05-25T05:05:02;100778.41;;;33.27;54.79
36798;BME280;22748;8.426;99.512;2023-05-25T05:07:31;100781.13;;;33.38;55.62
36798;BME280;22748;8.426;99.512;2023-05-25T05:10:02;100759.94;;;33.35;55.15
36798;BME280;22748;8.426;99.512;2023-05-25T05:12:31;100757.81;;;33.37;55.86
36798;BME280;22748;8.426;99.512;2023-05-25T05:15:02;100761.09;;;33.39;56.12
36798;BME280;22748;8.426;99.512;2023-05-25T05:17:31;100760.53;;;33.49;55.72
36798;BME280;22748;8.426;99.512;2023-05-25T05:20:02;100762.97;;;33.51;55.06
36798;BME280;22748;8.426;99.512;2023-05-25T05:22:35;100759.31;;;33.57;54.93
36798;BME280;22748;8.426;99.512;2023-05-25T05:25:04;100755.09;;;33.61;54.95
36798;BME280;22748;8.426;99.512;2023-05-25T05:27:35;100745.69;;;33.64;55.10
36798;BME280;22748;8.426;99.512;2023-05-25T05:30:05;100741.56;;;33.61;54.29
36798;BME280;22748;8.426;99.512;2023-05-25T05:32:34;100736.75;;;33.63;54.84
36798;BME280;22748;8.426;99.512;2023-05-25T05:35:07;100733.53;;;33.66;55.22
36798;BME280;22748;8.426;99.512;2023-05-25T05:37:36;100726.59;;;33.70;55.05
36798;BME280;22748;8.426;99.512;2023-05-25T05:40:07;100721.75;;;33.72;54.96
36798;BME280;22748;8.426;99.512;2023-05-25T05:42:37;100712.72;;;33.67;54.55
36798;BME280;22748;8.426;99.512;2023-05-25T05:45:08;100709.75;;;33.68;54.38
36798;BME280;22748;8.426;99.512;2023-05-25T05:47:38;100706.00;;;33.69;54.66
36798;BME280;22748;8.426;99.512;2023-05-25T05:50:10;100697.88;;;33.69;54.99
36798;BME280;22748;8.426;99.512;2023-05-25T05:52:39;100692.34;;;33.64;55.50
36798;BME280;22748;8.426;99.512;2023-05-25T05:55:09;100684.34;;;33.69;54.93
36798;BME280;22748;8.426;99.512;2023-05-25T05:57:38;100677.59;;;33.72;55.12
36798;BME280;22748;8.426;99.512;2023-05-25T06:00:09;100681.13;;;33.72;55.32
36798;BME280;22748;8.426;99.512;2023-05-25T06:02:41;100674.69;;;33.62;55.36
36798;BME280;22748;8.426;99.512;2023-05-25T06:05:12;100673.22;;;33.71;55.17
36798;BME280;22748;8.426;99.512;2023-05-25T06:07:42;100679.09;;;33.79;55.01
36798;BME280;22748;8.426;99.512;2023-05-25T06:10:12;100686.16;;;33.80;54.95
36798;BME280;22748;8.426;99.512;2023-05-25T06:12:41;100678.78;;;33.76;55.05
36798;BME280;22748;8.426;99.512;2023-05-25T06:15:11;100675.03;;;33.65;55.47
36798;BME280;22748;8.426;99.512;2023-05-25T06:17:41;100661.59;;;33.70;55.09
36798;BME280;22748;8.426;99.512;2023-05-25T06:20:13;100653.22;;;33.72;55.23
36798;BME280;22748;8.426;99.512;2023-05-25T06:22:42;100652.00;;;33.79;55.27
36798;BME280;22748;8.426;99.512;2023-05-25T06:25:11;100656.97;;;33.83;55.04
36798;BME280;22748;8.426;99.512;2023-05-25T06:27:41;100651.03;;;33.86;54.96
36798;BME280;22748;8.426;99.512;2023-05-25T06:30:11;100646.78;;;33.90;54.81
36798;BME280;22748;8.426;99.512;2023-05-25T06:32:40;100631.09;;;33.92;54.66
36798;BME280;22748;8.426;99.512;2023-05-25T06:35:09;100624.66;;;33.93;54.71
36798;BME280;22748;8.426;99.512;2023-05-25T06:37:46;100634.16;;;33.95;54.64
36798;BME280;22748;8.426;99.512;2023-05-25T06:40:15;100637.09;;;33.94;54.86
36798;BME280;22748;8.426;99.512;2023-05-25T06:42:45;100648.34;;;33.86;55.50
36798;BME280;22748;8.426;99.512;2023-05-25T06:45:15;100656.97;;;33.83;55.76
36798;BME280;22748;8.426;99.512;2023-05-25T06:47:44;100694.38;;;33.86;55.30
36798;BME280;22748;8.426;99.512;2023-05-25T06:50:13;100700.25;;;33.42;56.85
36798;BME280;22748;8.426;99.512;2023-05-25T06:52:44;100709.22;;;33.31;57.39
36798;BME280;22748;8.426;99.512;2023-05-25T06:55:16;100695.19;;;32.98;57.02
36798;BME280;22748;8.426;99.512;2023-05-25T06:57:46;100699.66;;;32.81;56.90
36798;BME280;22748;8.426;99.512;2023-05-25T07:00:16;100710.81;;;32.61;56.65
36798;BME280;22748;8.426;99.512;2023-05-25T07:02:47;100724.28;;;32.49;56.99
36798;BME280;22748;8.426;99.512;2023-05-25T07:05:17;100717.19;;;32.36;57.37
36798;BME280;22748;8.426;99.512;2023-05-25T07:07:52;100716.69;;;32.28;57.85
36798;BME280;22748;8.426;99.512;2023-05-25T07:10:24;100701.88;;;32.18;57.68
36798;BME280;22748;8.426;99.512;2023-05-25T07:12:53;100696.78;;;32.10;57.12
36798;BME280;22748;8.426;99.512;2023-05-25T07:15:22;100714.13;;;32.03;56.86
36798;BME280;22748;8.426;99.512;2023-05-25T07:17:52;100710.88;;;31.94;56.26
36798;BME280;22748;8.426;99.512;2023-05-25T07:20:24;100695.16;;;31.91;56.62
36798;BME280;22748;8.426;99.512;2023-05-25T07:22:53;100693.66;;;31.76;56.91
36798;BME280;22748;8.426;99.512;2023-05-25T07:25:25;100720.66;;;31.76;57.73
36798;BME280;22748;8.426;99.512;2023-05-25T07:27:55;100725.47;;;31.74;57.84
36798;BME280;22748;8.426;99.512;2023-05-25T07:30:25;100731.31;;;31.71;57.45
36798;BME280;22748;8.426;99.512;2023-05-25T07:32:54;100707.59;;;31.36;58.74
36798;BME280;22748;8.426;99.512;2023-05-25T07:35:29;100684.78;;;31.14;59.28
36798;BME280;22748;8.426;99.512;2023-05-25T07:38:01;100670.63;;;31.37;58.98
36798;BME280;22748;8.426;99.512;2023-05-25T07:40:33;100680.34;;;31.45;59.69
36798;BME280;22748;8.426;99.512;2023-05-25T07:43:02;100695.19;;;31.54;59.39
36798;BME280;22748;8.426;99.512;2023-05-25T07:45:31;100721.50;;;31.59;58.86
36798;BME280;22748;8.426;99.512;2023-05-25T07:48:00;100726.91;;;31.59;59.96
36798;BME280;22748;8.426;99.512;2023-05-25T07:50:35;100711.16;;;31.55;60.13
36798;BME280;22748;8.426;99.512;2023-05-25T07:53:04;100695.31;;;31.59;59.35
36798;BME280;22748;8.426;99.512;2023-05-25T07:55:35;100677.84;;;31.62;59.63
36798;BME280;22748;8.426;99.512;2023-05-25T07:58:04;100659.19;;;31.60;59.99
36798;BME280;22748;8.426;99.512;2023-05-25T08:00:33;100638.56;;;31.29;60.76
36798;BME280;22748;8.426;99.512;2023-05-25T08:03:02;100644.41;;;31.26;60.94
36798;BME280;22748;8.426;99.512;2023-05-25T08:05:31;100659.59;;;31.02;61.26
36798;BME280;22748;8.426;99.512;2023-05-25T08:08:00;100675.06;;;31.13;61.03
36798;BME280;22748;8.426;99.512;2023-05-25T08:10:29;100674.50;;;31.04;61.24
36798;BME280;22748;8.426;99.512;2023-05-25T08:13:00;100667.34;;;31.16;61.27
36798;BME280;22748;8.426;99.512;2023-05-25T08:15:30;100655.19;;;31.26;60.66
36798;BME280;22748;8.426;99.512;2023-05-25T08:17:59;100641.56;;;31.21;60.93
36798;BME280;22748;8.426;99.512;2023-05-25T08:20:29;100652.13;;;31.22;61.47
36798;BME280;22748;8.426;99.512;2023-05-25T08:22:59;100652.72;;;31.24;60.96
36798;BME280;22748;8.426;99.512;2023-05-25T08:25:28;100667.88;;;31.25;61.05
36798;BME280;22748;8.426;99.512;2023-05-25T08:27:57;100662.63;;;31.30;60.82
36798;BME280;22748;8.426;99.512;2023-05-25T08:30:28;100648.75;;;31.27;60.67
36798;BME280;22748;8.426;99.512;2023-05-25T08:32:59;100650.03;;;31.24;61.17
36798;BME280;22748;8.426;99.512;2023-05-25T08:35:28;100642.91;;;31.30;61.06
36798;BME280;22748;8.426;99.512;2023-05-25T08:37:59;100633.63;;;31.26;61.47
36798;BME280;22748;8.426;99.512;2023-05-25T08:40:27;100619.22;;;31.13;61.56
36798;BME280;22748;8.426;99.512;2023-05-25T08:42:57;100621.38;;;31.05;61.51
36798;BME280;22748;8.426;99.512;2023-05-25T08:45:26;100619.75;;;31.04;61.65
36798;BME280;22748;8.426;99.512;2023-05-25T08:47:57;100611.13;;;31.13;61.90
36798;BME280;22748;8.426;99.512;2023-05-25T08:50:26;100617.94;;;31.16;61.70
36798;BME280;22748;8.426;99.512;2023-05-25T08:52:59;100626.41;;;31.20;62.03
36798;BME280;22748;8.426;99.512;2023-05-25T08:55:30;100624.03;;;31.30;62.03
36798;BME280;22748;8.426;99.512;2023-05-25T08:58:05;100630.41;;;31.17;61.97
36798;BME280;22748;8.426;99.512;2023-05-25T09:00:35;100620.81;;;31.21;62.02
36798;BME280;22748;8.426;99.512;2023-05-25T09:03:10;100613.31;;;31.23;62.32
36798;BME280;22748;8.426;99.512;2023-05-25T09:05:41;100623.72;;;31.20;62.81
36798;BME280;22748;8.426;99.512;2023-05-25T09:08:11;100617.03;;;31.22;62.68
36798;BME280;22748;8.426;99.512;2023-05-25T09:10:41;100612.84;;;31.26;62.35
36798;BME280;22748;8.426;99.512;2023-05-25T09:13:10;100610.75;;;31.28;62.49
36798;BME280;22748;8.426;99.512;2023-05-25T09:15:40;100607.38;;;31.33;62.59
36798;BME280;22748;8.426;99.512;2023-05-25T09:18:11;100610.28;;;31.31;62.62
36798;BME280;22748;8.426;99.512;2023-05-25T09:20:41;100601.03;;;31.27;62.76
36798;BME280;22748;8.426;99.512;2023-05-25T09:23:14;100604.84;;;31.20;62.54
36798;BME280;22748;8.426;99.512;2023-05-25T09:25:44;100610.63;;;31.23;62.56
36798;BME280;22748;8.426;99.512;2023-05-25T09:28:18;100619.91;;;31.27;62.15
36798;BME280;22748;8.426;99.512;2023-05-25T09:30:47;100621.84;;;31.20;62.61
36798;BME280;22748;8.426;99.512;2023-05-25T09:33:21;100620.03;;;31.14;63.18
36798;BME280;22748;8.426;99.512;2023-05-25T09:35:50;100614.81;;;31.19;62.82
36798;BME280;22748;8.426;99.512;2023-05-25T09:38:20;100614.13;;;31.24;63.08
36798;BME280;22748;8.426;99.512;2023-05-25T09:52:27;100621.09;;;31.50;62.40
36798;BME280;22748;8.426;99.512;2023-05-25T09:54:57;100616.88;;;31.35;62.78
36798;BME280;22748;8.426;99.512;2023-05-25T09:57:28;100613.31;;;31.23;63.36
36798;BME280;22748;8.426;99.512;2023-05-25T09:59:58;100605.50;;;31.15;63.82
36798;BME280;22748;8.426;99.512;2023-05-25T10:02:32;100594.13;;;31.13;63.86
36798;BME280;22748;8.426;99.512;2023-05-25T10:05:10;100586.03;;;31.13;64.14
36798;BME280;22748;8.426;99.512;2023-05-25T10:07:48;100587.09;;;31.12;64.02
36798;BME280;22748;8.426;99.512;2023-05-25T10:10:19;100579.00;;;31.12;63.87
36798;BME280;22748;8.426;99.512;2023-05-25T10:12:52;100561.63;;;31.08;64.19
36798;BME280;22748;8.426;99.512;2023-05-25T10:15:24;100561.16;;;31.11;64.34
36798;BME280;22748;8.426;99.512;2023-05-25T10:17:55;100551.66;;;31.08;64.17
36798;BME280;22748;8.426;99.512;2023-05-25T10:20:31;100549.16;;;31.07;64.30
36798;BME280;22748;8.426;99.512;2023-05-25T10:23:14;100553.75;;;31.06;64.78
36798;BME280;22748;8.426;99.512;2023-05-25T10:25:47;100555.63;;;31.06;64.59
36798;BME280;22748;8.426;99.512;2023-05-25T10:28:23;100558.06;;;31.07;64.58
36798;BME280;22748;8.426;99.512;2023-05-25T10:30:57;100567.22;;;31.06;64.56
36798;BME280;22748;8.426;99.512;2023-05-25T10:33:27;100553.91;;;30.93;64.81
36798;BME280;22748;8.426;99.512;2023-05-25T10:35:58;100560.09;;;30.93;65.13
36798;BME280;22748;8.426;99.512;2023-05-25T10:38:33;100559.66;;;30.96;65.01
36798;BME280;22748;8.426;99.512;2023-05-25T10:41:04;100566.25;;;31.01;64.98
36798;BME280;22748;8.426;99.512;2023-05-25T10:43:38;100570.44;;;30.96;64.89
36798;BME280;22748;8.426;99.512;2023-05-25T10:46:08;100576.75;;;30.90;64.85
36798;BME280;22748;8.426;99.512;2023-05-25T10:48:39;100584.25;;;30.88;64.86
36798;BME280;22748;8.426;99.512;2023-05-25T10:51:10;100588.34;;;30.91;65.08
36798;BME280;22748;8.426;99.512;2023-05-25T10:53:46;100583.19;;;30.89;65.20
36798;BME280;22748;8.426;99.512;2023-05-25T10:56:18;100596.22;;;30.92;65.31
36798;BME280;22748;8.426;99.512;2023-05-25T10:58:54;100596.22;;;30.92;65.39
36798;BME280;22748;8.426;99.512;2023-05-25T11:01:25;100601.44;;;30.87;65.28
36798;BME280;22748;8.426;99.512;2023-05-25T11:03:55;100612.94;;;30.76;65.95
36798;BME280;22748;8.426;99.512;2023-05-25T11:09:40;100605.47;;;30.78;66.06
36798;BME280;22748;8.426;99.512;2023-05-25T11:12:27;100602.16;;;30.76;65.96
36798;BME280;22748;8.426;99.512;2023-05-25T11:15:20;100599.25;;;30.78;66.05
36798;BME280;22748;8.426;99.512;2023-05-25T11:18:14;100604.41;;;30.79;66.34
36798;BME280;22748;8.426;99.512;2023-05-25T11:20:44;100599.19;;;30.84;66.21
36798;BME280;22748;8.426;99.512;2023-05-25T11:23:22;100608.00;;;30.73;66.38
36798;BME280;22748;8.426;99.512;2023-05-25T11:26:06;100608.22;;;30.71;66.40
36798;BME280;22748;8.426;99.512;2023-05-25T11:28:45;100599.38;;;30.39;67.57
36798;BME280;22748;8.426;99.512;2023-05-25T11:31:15;100610.91;;;30.46;67.05
36798;BME280;22748;8.426;99.512;2023-05-25T11:33:54;100616.66;;;30.57;67.28
36798;BME280;22748;8.426;99.512;2023-05-25T11:36:27;100611.84;;;30.59;67.46
36798;BME280;22748;8.426;99.512;2023-05-25T11:39:02;100606.47;;;30.59;67.38
36798;BME280;22748;8.426;99.512;2023-05-25T11:41:36;100613.22;;;30.68;66.83
36798;BME280;22748;8.426;99.512;2023-05-25T11:44:07;100618.78;;;30.73;66.61
36798;BME280;22748;8.426;99.512;2023-05-25T11:46:36;100618.41;;;30.69;66.96
36798;BME280;22748;8.426;99.512;2023-05-25T11:49:07;100626.28;;;30.71;66.65
36798;BME280;22748;8.426;99.512;2023-05-25T11:51:37;100632.09;;;30.68;66.71
36798;BME280;22748;8.426;99.512;2023-05-25T11:54:09;100633.28;;;30.72;66.76
36798;BME280;22748;8.426;99.512;2023-05-25T11:56:42;100639.56;;;30.66;67.17
36798;BME280;22748;8.426;99.512;2023-05-25T11:59:13;100644.66;;;30.55;67.28
36798;BME280;22748;8.426;99.512;2023-05-25T12:01:43;100642.22;;;30.47;67.30
36798;BME280;22748;8.426;99.512;2023-05-25T12:04:13;100635.63;;;30.43;67.19
36798;BME280;22748;8.426;99.512;2023-05-25T12:06:46;100634.53;;;30.51;67.31
36798;BME280;22748;8.426;99.512;2023-05-25T12:09:20;100635.50;;;30.57;67.07
36798;BME280;22748;8.426;99.512;2023-05-25T12:11:52;100643.75;;;30.62;66.97
36798;BME280;22748;8.426;99.512;2023-05-25T12:14:23;100646.63;;;30.67;67.12
36798;BME280;22748;8.426;99.512;2023-05-25T12:16:54;100659.91;;;30.68;67.44
36798;BME280;22748;8.426;99.512;2023-05-25T12:19:24;100660.25;;;30.72;66.95
36798;BME280;22748;8.426;99.512;2023-05-25T12:21:56;100667.91;;;30.75;67.27
36798;BME280;22748;8.426;99.512;2023-05-25T12:24:27;100675.09;;;30.81;66.64
36798;BME280;22748;8.426;99.512;2023-05-25T12:26:59;100669.28;;;30.84;66.92
36798;BME280;22748;8.426;99.512;2023-05-25T12:29:32;100674.25;;;30.87;66.85
36798;BME280;22748;8.426;99.512;2023-05-25T12:32:13;100677.56;;;30.89;66.55
36798;BME280;22748;8.426;99.512;2023-05-25T12:34:44;100696.72;;;30.74;66.82
36798;BME280;22748;8.426;99.512;2023-05-25T12:37:19;100696.50;;;30.76;67.08
36798;BME280;22748;8.426;99.512;2023-05-25T12:39:50;100707.44;;;30.81;66.99
36798;BME280;22748;8.426;99.512;2023-05-25T12:42:23;100715.13;;;30.84;66.83
36798;BME280;22748;8.426;99.512;2023-05-25T12:44:57;100714.06;;;30.85;66.64
36798;BME280;22748;8.426;99.512;2023-05-25T12:47:27;100715.34;;;30.83;66.63
36798;BME280;22748;8.426;99.512;2023-05-25T12:50:13;100712.84;;;30.81;67.05
36798;BME280;22748;8.426;99.512;2023-05-25T12:52:44;100724.25;;;30.83;66.71
36798;BME280;22748;8.426;99.512;2023-05-25T12:55:25;100727.53;;;30.85;66.95
36798;BME280;22748;8.426;99.512;2023-05-25T12:57:57;100728.59;;;30.84;66.59
36798;BME280;22748;8.426;99.512;2023-05-25T13:00:31;100719.47;;;30.85;66.95
36798;BME280;22748;8.426;99.512;2023-05-25T13:03:02;100719.91;;;30.82;66.80
36798;BME280;22748;8.426;99.512;2023-05-25T13:05:35;100727.03;;;30.70;67.40
36798;BME280;22748;8.426;99.512;2023-05-25T13:08:06;100735.13;;;30.70;67.23
36798;BME280;22748;8.426;99.512;2023-05-25T13:10:38;100734.38;;;30.63;67.40
36798;BME280;22748;8.426;99.512;2023-05-25T13:13:11;100736.59;;;30.66;67.06
36798;BME280;22748;8.426;99.512;2023-05-25T13:15:42;100726.44;;;30.68;67.50
36798;BME280;22748;8.426;99.512;2023-05-25T13:18:12;100730.34;;;30.72;67.01
36798;BME280;22748;8.426;99.512;2023-05-25T13:20:42;100731.16;;;30.72;67.13
36798;BME280;22748;8.426;99.512;2023-05-25T13:23:14;100733.44;;;30.75;67.17
36798;BME280;22748;8.426;99.512;2023-05-25T13:25:45;100733.22;;;30.77;67.05
36798;BME280;22748;8.426;99.512;2023-05-25T13:28:16;100736.13;;;30.75;67.05
36798;BME280;22748;8.426;99.512;2023-05-25T13:30:47;100752.53;;;30.74;67.04
36798;BME280;22748;8.426;99.512;2023-05-25T13:33:17;100752.31;;;30.75;66.73
36798;BME280;22748;8.426;99.512;2023-05-25T13:35:47;100751.50;;;30.75;67.12
36798;BME280;22748;8.426;99.512;2023-05-25T13:38:25;100748.41;;;30.71;67.15